createdAt,value
2018-06-15T00:00:20.920Z,0.00
2018-06-15T00:01:20.937Z,0.00
2018-06-15T00:02:20.952Z,0.00
2018-06-15T00:03:21.071Z,0.00
2018-06-15T00:04:20.985Z,0.00
2018-06-15T00:05:20.999Z,0.00
2018-06-15T00:06:21.017Z,0.00
2018-06-15T00:07:21.035Z,0.00
2018-06-15T00:08:21.049Z,0.00
2018-06-15T00:09:21.067Z,0.00
2018-06-15T00:10:21.080Z,0.00
2018-06-15T00:11:21.095Z,0.00
2018-06-15T00:12:21.113Z,0.00
2018-06-15T00:13:21.129Z,0.00
2018-06-15T00:14:21.144Z,0.00
2018-06-15T00:15:21.161Z,0.00
2018-06-15T00:16:21.177Z,0.00
2018-06-15T00:17:21.191Z,0.00
2018-06-15T00:18:21.209Z,0.00
2018-06-15T00:19:21.225Z,0.00
2018-06-15T00:20:21.240Z,0.00
2018-06-15T00:21:21.257Z,0.00
2018-06-15T00:22:21.273Z,0.00
2018-06-15T00:23:21.308Z,0.00
2018-06-15T00:24:21.315Z,0.00
2018-06-15T00:25:21.321Z,0.00
2018-06-15T00:26:21.339Z,0.00
2018-06-15T00:27:21.351Z,0.00
2018-06-15T00:28:21.375Z,0.00
2018-06-15T00:29:21.390Z,0.00
2018-06-15T00:30:21.401Z,0.00
2018-06-15T00:31:21.474Z,0.00
2018-06-15T00:32:21.437Z,0.00
2018-06-15T00:33:21.448Z,0.00
2018-06-15T00:34:21.464Z,0.00
2018-06-15T00:35:21.483Z,0.00
2018-06-15T00:36:21.501Z,0.00
2018-06-15T00:37:21.515Z,0.00
2018-06-15T00:38:21.534Z,0.00
2018-06-15T00:39:21.544Z,0.00
2018-06-15T00:40:21.563Z,0.00
2018-06-15T00:41:21.582Z,0.00
2018-06-15T00:42:21.592Z,0.00
2018-06-15T00:43:21.608Z,0.00
2018-06-15T00:44:21.625Z,0.00
2018-06-15T00:45:21.643Z,0.00
2018-06-15T00:46:21.662Z,0.00
2018-06-15T00:47:21.680Z,0.00
2018-06-15T00:48:21.704Z,0.00
2018-06-15T00:49:21.706Z,0.00
2018-06-15T00:50:21.720Z,0.00
2018-06-15T00:51:21.748Z,0.00
2018-06-15T00:52:21.753Z,0.00
2018-06-15T00:53:21.800Z,0.00
2018-06-15T00:54:21.784Z,0.00
2018-06-15T00:55:21.800Z,0.00
2018-06-15T00:56:21.820Z,0.00
2018-06-15T00:57:21.833Z,0.00
2018-06-15T00:58:21.849Z,0.00
2018-06-15T00:59:21.865Z,0.00
2018-06-15T01:00:21.883Z,0.00
2018-06-15T01:01:21.905Z,0.00
2018-06-15T01:02:22.114Z,0.00
2018-06-15T01:03:21.928Z,0.00
2018-06-15T01:04:21.944Z,0.00
2018-06-15T01:05:21.961Z,0.00
2018-06-15T01:06:21.977Z,0.00
2018-06-15T01:07:21.993Z,0.00
2018-06-15T01:08:22.012Z,0.00
2018-06-15T01:09:22.026Z,0.00
2018-06-15T01:10:22.040Z,0.00
2018-06-15T01:11:22.056Z,0.00
2018-06-15T01:12:22.073Z,0.00
2018-06-15T01:13:22.095Z,0.00
2018-06-15T01:14:22.205Z,0.00
2018-06-15T01:15:22.122Z,0.00
2018-06-15T01:16:22.137Z,0.00
2018-06-15T01:17:22.156Z,0.00
2018-06-15T01:18:22.167Z,0.00
2018-06-15T01:19:22.185Z,0.00
2018-06-15T01:20:22.201Z,0.00
2018-06-15T01:21:22.219Z,0.00
2018-06-15T01:22:22.232Z,0.00
2018-06-15T01:23:22.251Z,0.00
2018-06-15T01:24:22.265Z,0.00
2018-06-15T01:25:22.282Z,0.00
2018-06-15T01:26:22.300Z,0.00
2018-06-15T01:27:22.340Z,0.00
2018-06-15T01:28:22.343Z,0.00
2018-06-15T01:29:22.345Z,0.00
2018-06-15T01:30:22.362Z,0.00
2018-06-15T01:31:22.378Z,0.00
2018-06-15T01:32:22.393Z,0.00
2018-06-15T01:33:22.416Z,0.00
2018-06-15T01:34:22.425Z,0.00
2018-06-15T01:35:22.441Z,0.00
2018-06-15T01:36:22.458Z,0.00
2018-06-15T01:37:22.475Z,0.00
2018-06-15T01:38:22.494Z,0.00
2018-06-15T01:39:22.507Z,0.00
2018-06-15T01:40:22.522Z,0.00
2018-06-15T01:41:22.538Z,0.00
2018-06-15T01:42:22.552Z,0.00
2018-06-15T01:43:22.567Z,0.00
2018-06-15T01:44:22.584Z,0.00
2018-06-15T01:45:22.600Z,0.00
2018-06-15T01:46:22.616Z,0.00
2018-06-15T01:47:22.636Z,0.00
2018-06-15T01:48:22.655Z,0.00
2018-06-15T01:49:22.665Z,0.00
2018-06-15T01:50:22.680Z,0.00
2018-06-15T01:51:22.698Z,0.00
2018-06-15T01:52:22.715Z,0.00
2018-06-15T01:53:22.728Z,0.00
2018-06-15T01:54:22.744Z,0.00
2018-06-15T01:55:22.760Z,0.00
2018-06-15T01:56:22.781Z,0.00
2018-06-15T01:57:22.793Z,0.00
2018-06-15T01:58:22.811Z,0.00
2018-06-15T01:59:22.870Z,0.00
2018-06-15T02:00:22.844Z,0.00
2018-06-15T02:01:22.918Z,0.00
2018-06-15T02:02:22.872Z,0.00
2018-06-15T02:03:22.892Z,0.00
2018-06-15T02:04:22.907Z,0.00
2018-06-15T02:05:22.923Z,0.00
2018-06-15T02:06:22.937Z,0.00
2018-06-15T02:07:22.953Z,0.00
2018-06-15T02:08:22.969Z,0.00
2018-06-15T02:09:22.985Z,0.00
2018-06-15T02:10:23.002Z,0.00
2018-06-15T02:11:23.019Z,0.00
2018-06-15T02:12:23.033Z,0.00
2018-06-15T02:13:23.058Z,4.00
2018-06-15T02:14:23.079Z,4.00
2018-06-15T02:15:23.118Z,4.00
2018-06-15T02:16:23.097Z,4.00
2018-06-15T02:17:23.115Z,4.00
2018-06-15T02:18:23.132Z,4.00
2018-06-15T02:19:23.143Z,4.00
2018-06-15T02:20:23.172Z,4.00
2018-06-15T02:21:23.185Z,4.00
2018-06-15T02:22:23.195Z,4.00
2018-06-15T02:23:23.208Z,4.00
2018-06-15T02:24:23.243Z,4.00
2018-06-15T02:25:23.241Z,4.00
2018-06-15T02:26:23.257Z,4.00
2018-06-15T02:27:23.283Z,4.00
2018-06-15T02:28:23.288Z,4.00
2018-06-15T02:29:23.305Z,4.00
2018-06-15T02:30:23.322Z,4.00
2018-06-15T02:31:23.338Z,4.00
2018-06-15T02:32:23.355Z,4.00
2018-06-15T02:33:23.372Z,4.00
2018-06-15T02:34:23.391Z,4.00
2018-06-15T02:35:23.410Z,0.00
2018-06-15T02:36:23.418Z,0.00
2018-06-15T02:37:23.436Z,4.00
2018-06-15T02:38:23.449Z,4.00
2018-06-15T02:39:23.486Z,4.00
2018-06-15T02:40:23.481Z,4.00
2018-06-15T02:41:23.508Z,4.00
2018-06-15T02:42:23.512Z,8.00
2018-06-15T02:43:23.538Z,4.00
2018-06-15T02:44:23.544Z,4.00
2018-06-15T02:45:23.598Z,8.00
2018-06-15T02:46:23.575Z,8.00
2018-06-15T02:47:23.597Z,4.00
2018-06-15T02:48:23.606Z,8.00
2018-06-15T02:49:23.623Z,8.00
2018-06-15T02:50:23.637Z,8.00
2018-06-15T02:51:23.654Z,8.00
2018-06-15T02:52:23.675Z,8.00
2018-06-15T02:53:23.686Z,8.00
2018-06-15T02:54:23.703Z,12.00
2018-06-15T02:55:23.719Z,8.00
2018-06-15T02:56:23.739Z,12.00
2018-06-15T02:57:23.762Z,12.00
2018-06-15T02:58:23.765Z,12.00
2018-06-15T02:59:23.784Z,12.00
2018-06-15T03:00:23.798Z,16.00
2018-06-15T03:01:23.817Z,16.00
2018-06-15T03:02:23.847Z,16.00
2018-06-15T03:03:23.845Z,20.00
2018-06-15T03:04:23.862Z,16.00
2018-06-15T03:05:23.880Z,16.00
2018-06-15T03:06:23.894Z,16.00
2018-06-15T03:07:23.911Z,20.00
2018-06-15T03:08:23.925Z,20.00
2018-06-15T03:09:23.945Z,20.00
2018-06-15T03:10:23.959Z,28.00
2018-06-15T03:11:23.975Z,24.00
2018-06-15T03:12:23.997Z,28.00
2018-06-15T03:13:24.006Z,28.00
2018-06-15T03:14:24.021Z,24.00
2018-06-15T03:15:24.038Z,24.00
2018-06-15T03:16:24.055Z,24.00
2018-06-15T03:17:24.083Z,28.00
2018-06-15T03:18:24.086Z,28.00
2018-06-15T03:19:24.102Z,28.00
2018-06-15T03:20:24.116Z,32.00
2018-06-15T03:21:24.135Z,32.00
2018-06-15T03:22:24.148Z,40.00
2018-06-15T03:23:24.165Z,40.00
2018-06-15T03:24:24.183Z,44.00
2018-06-15T03:25:24.197Z,52.00
2018-06-15T03:26:24.240Z,56.00
2018-06-15T03:27:24.228Z,68.00
2018-06-15T03:28:24.300Z,72.00
2018-06-15T03:29:24.287Z,80.00
2018-06-15T03:30:24.279Z,84.00
2018-06-15T03:31:24.392Z,88.00
2018-06-15T03:32:24.312Z,92.00
2018-06-15T03:33:24.325Z,92.00
2018-06-15T03:34:24.341Z,96.00
2018-06-15T03:35:24.356Z,96.00
2018-06-15T03:36:24.372Z,108.00
2018-06-15T03:37:24.389Z,116.00
2018-06-15T03:38:24.410Z,132.00
2018-06-15T03:39:24.732Z,148.00
2018-06-15T03:40:24.448Z,164.00
2018-06-15T03:41:24.454Z,176.00
2018-06-15T03:42:24.481Z,184.00
2018-06-15T03:43:24.484Z,184.00
2018-06-15T03:44:24.503Z,188.00
2018-06-15T03:45:24.524Z,184.00
2018-06-15T03:46:24.534Z,184.00
2018-06-15T03:47:24.550Z,184.00
2018-06-15T03:48:24.571Z,176.00
2018-06-15T03:49:24.585Z,168.00
2018-06-15T03:50:24.600Z,156.00
2018-06-15T03:51:24.616Z,148.00
2018-06-15T03:52:24.630Z,140.00
2018-06-15T03:53:24.650Z,144.00
2018-06-15T03:54:24.664Z,160.00
2018-06-15T03:55:24.682Z,184.00
2018-06-15T03:56:24.701Z,196.00
2018-06-15T03:57:24.712Z,200.00
2018-06-15T03:58:24.727Z,204.00
2018-06-15T03:59:24.745Z,200.00
2018-06-15T04:00:24.758Z,188.00
2018-06-15T04:01:24.781Z,180.00
2018-06-15T04:02:24.791Z,176.00
2018-06-15T04:03:24.818Z,188.00
2018-06-15T04:04:24.824Z,200.00
2018-06-15T04:05:24.840Z,224.00
2018-06-15T04:06:24.853Z,232.00
2018-06-15T04:07:24.872Z,228.00
2018-06-15T04:08:24.891Z,212.00
2018-06-15T04:09:24.909Z,196.00
2018-06-15T04:10:24.927Z,184.00
2018-06-15T04:11:24.936Z,176.00
2018-06-15T04:12:24.955Z,184.00
2018-06-15T04:13:25.042Z,196.00
2018-06-15T04:14:24.985Z,216.00
2018-06-15T04:15:25.005Z,228.00
2018-06-15T04:16:25.017Z,240.00
2018-06-15T04:17:25.036Z,248.00
2018-06-15T04:18:25.050Z,256.00
2018-06-15T04:19:25.070Z,268.00
2018-06-15T04:20:25.080Z,276.00
2018-06-15T04:21:25.097Z,284.00
2018-06-15T04:22:25.113Z,292.00
2018-06-15T04:23:25.132Z,296.00
2018-06-15T04:24:25.145Z,296.00
2018-06-15T04:25:25.169Z,312.00
2018-06-15T04:26:25.177Z,316.00
2018-06-15T04:27:25.194Z,320.00
2018-06-15T04:28:25.212Z,324.00
2018-06-15T04:29:25.224Z,332.00
2018-06-15T04:30:25.246Z,352.00
2018-06-15T04:31:25.258Z,376.00
2018-06-15T04:32:25.274Z,396.00
2018-06-15T04:33:25.290Z,408.00
2018-06-15T04:34:25.305Z,424.00
2018-06-15T04:35:25.325Z,436.00
2018-06-15T04:36:25.338Z,456.00
2018-06-15T04:37:25.391Z,488.00
2018-06-15T04:38:25.381Z,520.00
2018-06-15T04:39:25.385Z,548.00
2018-06-15T04:40:25.401Z,572.00
2018-06-15T04:41:25.419Z,596.00
2018-06-15T04:42:25.433Z,620.00
2018-06-15T04:43:25.452Z,644.00
2018-06-15T04:44:25.502Z,672.00
2018-06-15T04:45:25.486Z,700.00
2018-06-15T04:46:25.500Z,720.00
2018-06-15T04:47:25.519Z,744.00
2018-06-15T04:48:25.534Z,764.00
2018-06-15T04:49:25.549Z,780.00
2018-06-15T04:50:25.864Z,796.00
2018-06-15T04:51:25.618Z,804.00
2018-06-15T04:52:25.705Z,816.00
2018-06-15T04:53:25.613Z,820.00
2018-06-15T04:54:26.693Z,808.00
2018-06-15T04:55:25.645Z,780.00
2018-06-15T04:56:25.663Z,756.00
2018-06-15T04:57:25.679Z,728.00
2018-06-15T04:58:25.693Z,704.00
2018-06-15T04:59:25.713Z,684.00
2018-06-15T05:00:25.732Z,664.00
2018-06-15T05:01:25.745Z,668.00
2018-06-15T05:02:25.767Z,704.00
2018-06-15T05:03:25.787Z,756.00
2018-06-15T05:04:26.748Z,796.00
2018-06-15T05:05:25.813Z,816.00
2018-06-15T05:06:25.831Z,832.00
2018-06-15T05:07:25.847Z,852.00
2018-06-15T05:08:25.868Z,872.00
2018-06-15T05:09:25.879Z,892.00
2018-06-15T05:10:25.895Z,912.00
2018-06-15T05:11:26.009Z,920.00
2018-06-15T05:12:25.942Z,916.00
2018-06-15T05:13:25.945Z,904.00
2018-06-15T05:14:25.970Z,916.00
2018-06-15T05:15:25.973Z,944.00
2018-06-15T05:16:25.995Z,968.00
2018-06-15T05:17:26.017Z,976.00
2018-06-15T05:18:26.040Z,960.00
2018-06-15T05:19:26.040Z,968.00
2018-06-15T05:20:26.056Z,988.00
2018-06-15T05:21:26.088Z,1020.00
2018-06-15T05:22:26.306Z,1048.00
2018-06-15T05:23:26.107Z,1080.00
2018-06-15T05:24:26.121Z,1108.00
2018-06-15T05:25:26.138Z,1148.00
2018-06-15T05:26:26.153Z,1184.00
2018-06-15T05:27:26.172Z,1220.00
2018-06-15T05:28:26.186Z,1244.00
2018-06-15T05:29:26.206Z,1244.00
2018-06-15T05:30:26.225Z,1216.00
2018-06-15T05:31:26.249Z,1184.00
2018-06-15T05:32:26.258Z,1168.00
2018-06-15T05:33:26.271Z,1140.00
2018-06-15T05:34:26.287Z,1112.00
2018-06-15T05:35:26.306Z,1100.00
2018-06-15T05:36:26.319Z,1116.00
2018-06-15T05:37:26.337Z,1144.00
2018-06-15T05:38:26.350Z,1176.00
2018-06-15T05:39:26.368Z,1216.00
2018-06-15T05:40:26.387Z,1264.00
2018-06-15T05:41:26.402Z,1320.00
2018-06-15T05:42:26.417Z,1356.00
2018-06-15T05:43:26.433Z,1372.00
2018-06-15T05:44:26.449Z,1352.00
2018-06-15T05:45:26.470Z,1300.00
2018-06-15T05:46:26.483Z,1228.00
2018-06-15T05:47:26.501Z,1156.00
2018-06-15T05:48:26.524Z,1124.00
2018-06-15T05:49:26.538Z,1100.00
2018-06-15T05:50:26.580Z,1080.00
2018-06-15T05:51:26.569Z,1052.00
2018-06-15T05:52:26.582Z,1028.00
2018-06-15T05:53:26.599Z,1024.00
2018-06-15T05:54:26.615Z,1036.00
2018-06-15T05:55:26.633Z,1012.00
2018-06-15T05:56:26.657Z,1012.00
2018-06-15T05:57:26.667Z,1028.00
2018-06-15T05:58:26.691Z,1044.00
2018-06-15T05:59:26.698Z,1080.00
2018-06-15T06:00:26.717Z,1128.00
2018-06-15T06:01:26.732Z,1204.00
2018-06-15T06:02:26.748Z,1288.00
2018-06-15T06:03:26.763Z,1364.00
2018-06-15T06:04:26.781Z,1396.00
2018-06-15T06:05:26.797Z,1396.00
2018-06-15T06:06:26.815Z,1412.00
2018-06-15T06:07:26.831Z,1448.00
2018-06-15T06:08:26.851Z,1456.00
2018-06-15T06:09:26.871Z,1468.00
2018-06-15T06:10:26.911Z,1460.00
2018-06-15T06:11:26.898Z,1420.00
2018-06-15T06:12:26.929Z,1380.00
2018-06-15T06:13:26.934Z,1372.00
2018-06-15T06:14:26.946Z,1396.00
2018-06-15T06:15:26.962Z,1436.00
2018-06-15T06:16:26.985Z,1480.00
2018-06-15T06:17:26.996Z,1540.00
2018-06-15T06:18:27.008Z,1600.00
2018-06-15T06:19:27.024Z,1640.00
2018-06-15T06:20:27.042Z,1680.00
2018-06-15T06:21:27.070Z,1732.00
2018-06-15T06:22:27.075Z,1784.00
2018-06-15T06:23:27.098Z,1832.00
2018-06-15T06:24:27.106Z,1896.00
2018-06-15T06:25:27.121Z,1972.00
2018-06-15T06:26:27.157Z,2084.00
2018-06-15T06:27:27.157Z,2160.00
2018-06-15T06:28:27.173Z,2208.00
2018-06-15T06:29:27.189Z,2248.00
2018-06-15T06:30:27.207Z,2360.00
2018-06-15T06:31:27.222Z,2532.00
2018-06-15T06:32:27.252Z,2652.00
2018-06-15T06:33:27.258Z,2764.00
2018-06-15T06:34:27.273Z,2892.00
2018-06-15T06:35:27.290Z,3056.00
2018-06-15T06:36:27.306Z,3500.00
2018-06-15T06:37:27.328Z,3468.00
2018-06-15T06:38:27.340Z,3124.00
2018-06-15T06:39:27.356Z,3052.00
2018-06-15T06:40:27.375Z,3020.00
2018-06-15T06:41:27.392Z,3052.00
2018-06-15T06:42:27.412Z,3212.00
2018-06-15T06:43:27.430Z,3260.00
2018-06-15T06:44:27.443Z,3048.00
2018-06-15T06:45:27.462Z,2756.00
2018-06-15T06:46:27.482Z,2628.00
2018-06-15T06:47:27.494Z,2680.00
2018-06-15T06:49:27.530Z,2796.00
2018-06-15T06:50:27.550Z,3092.00
2018-06-15T06:51:27.564Z,3540.00
2018-06-15T06:52:27.583Z,3640.00
2018-06-15T06:53:27.599Z,3440.00
2018-06-15T06:54:27.617Z,3396.00
2018-06-15T06:55:27.642Z,3840.00
2018-06-15T06:56:27.669Z,3628.00
2018-06-15T06:57:27.941Z,3332.00
2018-06-15T06:58:27.749Z,3756.00
2018-06-15T06:59:27.705Z,3884.00
2018-06-15T07:00:27.722Z,3580.00
2018-06-15T07:01:27.744Z,3528.00
2018-06-15T07:02:27.759Z,3520.00
2018-06-15T07:03:27.803Z,3272.00
2018-06-15T07:04:27.791Z,3204.00
2018-06-15T07:05:27.810Z,3456.00
2018-06-15T07:06:27.830Z,3616.00
2018-06-15T07:07:27.867Z,3676.00
2018-06-15T07:08:27.873Z,3684.00
2018-06-15T07:09:27.883Z,3632.00
2018-06-15T07:10:27.911Z,3380.00
2018-06-15T07:11:27.927Z,3376.00
2018-06-15T07:12:28.473Z,3204.00
2018-06-15T07:13:27.952Z,3104.00
2018-06-15T07:14:27.969Z,2480.00
2018-06-15T07:15:27.986Z,2320.00
2018-06-15T07:16:28.016Z,2116.00
2018-06-15T07:17:28.022Z,1936.00
2018-06-15T07:18:28.046Z,1876.00
2018-06-15T07:19:28.058Z,1920.00
2018-06-15T07:20:28.079Z,1980.00
2018-06-15T07:21:28.098Z,1960.00
2018-06-15T07:22:28.141Z,1860.00
2018-06-15T07:23:28.519Z,1764.00
2018-06-15T07:24:28.624Z,1684.00
2018-06-15T07:25:28.163Z,1592.00
2018-06-15T07:26:28.186Z,1524.00
2018-06-15T07:27:28.270Z,1488.00
2018-06-15T07:28:28.228Z,1472.00
2018-06-15T07:29:28.236Z,1468.00
2018-06-15T07:30:28.362Z,1440.00
2018-06-15T07:31:28.419Z,1376.00
2018-06-15T07:32:28.292Z,1316.00
2018-06-15T07:33:28.314Z,1260.00
2018-06-15T07:34:28.323Z,1236.00
2018-06-15T07:35:28.358Z,1252.00
2018-06-15T07:36:28.584Z,1288.00
2018-06-15T07:37:28.382Z,1344.00
2018-06-15T07:38:28.406Z,1396.00
2018-06-15T07:39:28.411Z,1440.00
2018-06-15T07:40:28.422Z,1500.00
2018-06-15T07:41:28.449Z,1508.00
2018-06-15T07:42:28.459Z,1504.00
2018-06-15T07:43:28.481Z,1480.00
2018-06-15T07:44:28.497Z,1448.00
2018-06-15T07:45:28.508Z,1444.00
2018-06-15T07:46:28.556Z,1456.00
2018-06-15T07:47:28.546Z,1492.00
2018-06-15T07:48:28.564Z,1524.00
2018-06-15T07:49:28.582Z,1528.00
2018-06-15T07:50:28.595Z,1548.00
2018-06-15T07:51:28.613Z,1576.00
2018-06-15T07:52:28.639Z,1596.00
2018-06-15T07:53:28.661Z,1640.00
2018-06-15T07:54:28.663Z,1672.00
2018-06-15T07:55:28.684Z,1708.00
2018-06-15T07:56:28.727Z,1772.00
2018-06-15T07:57:28.738Z,1872.00
2018-06-15T07:58:28.733Z,1980.00
2018-06-15T07:59:28.774Z,2048.00
2018-06-15T08:00:28.766Z,2144.00
2018-06-15T08:01:28.783Z,2208.00
2018-06-15T08:02:28.981Z,2256.00
2018-06-15T08:03:28.822Z,2336.00
2018-06-15T08:04:29.061Z,2360.00
2018-06-15T08:05:29.011Z,2456.00
2018-06-15T08:06:28.871Z,2628.00
2018-06-15T08:07:28.888Z,2760.00
2018-06-15T08:08:28.906Z,2956.00
2018-06-15T08:10:28.938Z,2948.00
2018-06-15T08:11:28.957Z,2968.00
2018-06-15T08:12:29.000Z,3092.00
2018-06-15T08:13:28.992Z,3060.00
2018-06-15T08:14:29.034Z,3776.00
2018-06-15T08:15:29.034Z,4056.00
2018-06-15T08:16:29.044Z,4584.00
2018-06-15T08:17:29.059Z,4776.00
2018-06-15T08:18:29.081Z,4904.00
2018-06-15T08:19:29.108Z,5024.00
2018-06-15T08:20:29.115Z,5064.00
2018-06-15T08:21:29.132Z,5264.00
2018-06-15T08:22:29.148Z,5320.00
2018-06-15T08:23:29.168Z,4632.00
2018-06-15T08:24:29.190Z,4968.00
2018-06-15T08:25:29.205Z,5244.00
2018-06-15T08:26:29.223Z,5344.00
2018-06-15T08:27:29.238Z,5572.00
2018-06-15T08:28:29.260Z,5676.00
2018-06-15T08:29:29.290Z,5672.00
2018-06-15T08:30:29.304Z,5100.00
2018-06-15T08:31:29.311Z,5180.00
2018-06-15T08:32:29.346Z,4636.00
2018-06-15T08:33:29.351Z,4884.00
2018-06-15T08:34:29.366Z,5668.00
2018-06-15T08:35:29.390Z,4288.00
2018-06-15T08:36:29.408Z,4152.00
2018-06-15T08:37:29.422Z,4120.00
2018-06-15T08:38:29.454Z,4248.00
2018-06-15T08:39:29.464Z,4296.00
2018-06-15T08:40:29.505Z,5060.00
2018-06-15T08:41:29.518Z,4348.00
2018-06-15T08:42:29.516Z,5100.00
2018-06-15T08:43:29.531Z,4544.00
2018-06-15T08:44:29.556Z,4056.00
2018-06-15T08:45:29.574Z,3992.00
2018-06-15T08:46:29.591Z,4144.00
2018-06-15T08:47:29.612Z,4388.00
2018-06-15T08:48:29.659Z,4428.00
2018-06-15T08:49:29.650Z,4396.00
2018-06-15T08:50:29.670Z,4476.00
2018-06-15T08:51:29.686Z,4508.00
2018-06-15T08:52:29.721Z,4744.00
2018-06-15T08:53:29.722Z,4564.00
2018-06-15T08:54:29.746Z,4500.00
2018-06-15T08:55:29.773Z,4380.00
2018-06-15T08:56:29.781Z,4304.00
2018-06-15T08:57:29.796Z,4276.00
2018-06-15T08:58:29.820Z,4168.00
2018-06-15T08:59:29.842Z,4108.00
2018-06-15T09:00:29.854Z,4032.00
2018-06-15T09:01:29.871Z,3980.00
2018-06-15T09:02:29.900Z,4152.00
2018-06-15T09:03:29.912Z,4492.00
2018-06-15T09:04:29.961Z,3968.00
2018-06-15T09:05:29.958Z,3960.00
2018-06-15T09:06:29.967Z,3840.00
2018-06-15T09:07:29.988Z,3660.00
2018-06-15T09:08:30.009Z,3532.00
2018-06-15T09:09:30.022Z,3536.00
2018-06-15T09:10:30.136Z,4556.00
2018-06-15T09:11:30.096Z,4452.00
2018-06-15T09:12:30.079Z,3956.00
2018-06-15T09:13:30.099Z,3720.00
2018-06-15T09:14:30.116Z,3572.00
2018-06-15T09:16:30.158Z,3640.00
2018-06-15T09:17:30.168Z,3692.00
2018-06-15T09:18:30.234Z,3908.00
2018-06-15T09:19:30.519Z,4528.00
2018-06-15T09:20:30.230Z,5116.00
2018-06-15T09:21:30.293Z,5112.00
2018-06-15T09:22:30.279Z,4728.00
2018-06-15T09:23:30.290Z,4400.00
2018-06-15T09:24:30.319Z,4876.00
2018-06-15T09:25:30.324Z,4292.00
2018-06-15T09:26:30.337Z,4168.00
2018-06-15T09:27:30.848Z,4188.00
2018-06-15T09:28:30.389Z,4188.00
2018-06-15T09:29:30.398Z,4184.00
2018-06-15T09:30:30.442Z,4180.00
2018-06-15T09:31:30.435Z,4188.00
2018-06-15T09:32:30.450Z,4368.00
2018-06-15T09:33:30.510Z,4788.00
2018-06-15T09:34:30.496Z,4540.00
2018-06-15T09:35:30.529Z,4336.00
2018-06-15T09:36:30.529Z,5140.00
2018-06-15T09:37:30.548Z,4284.00
2018-06-15T09:38:30.568Z,4176.00
2018-06-15T09:39:30.585Z,4008.00
2018-06-15T09:40:30.701Z,3832.00
2018-06-15T09:41:31.687Z,3740.00
2018-06-15T09:42:30.642Z,3712.00
2018-06-15T09:43:30.669Z,3820.00
2018-06-15T09:44:31.262Z,3976.00
2018-06-15T09:47:30.766Z,5552.00
2018-06-15T09:48:30.777Z,4320.00
2018-06-15T09:49:30.802Z,4120.00
2018-06-15T09:50:30.798Z,4120.00
2018-06-15T09:51:30.821Z,3984.00
2018-06-15T09:52:30.838Z,3948.00
2018-06-15T09:53:30.856Z,3812.00
2018-06-15T09:54:30.943Z,3684.00
2018-06-15T09:55:30.915Z,3580.00
2018-06-15T09:56:30.919Z,3472.00
2018-06-15T09:58:30.942Z,3308.00
2018-06-15T09:59:30.979Z,3328.00
2018-06-15T10:00:30.983Z,3360.00
2018-06-15T10:01:31.000Z,3412.00
2018-06-15T10:02:31.021Z,3456.00
2018-06-15T10:03:31.038Z,4476.00
2018-06-15T10:04:31.058Z,3628.00
2018-06-15T10:05:31.082Z,3516.00
2018-06-15T10:06:31.122Z,3556.00
2018-06-15T10:07:31.134Z,3648.00
2018-06-15T10:08:31.139Z,3756.00
2018-06-15T10:09:31.177Z,3744.00
2018-06-15T10:10:31.198Z,3712.00
2018-06-15T10:11:31.190Z,3672.00
2018-06-15T10:12:31.243Z,3616.00
2018-06-15T10:13:31.387Z,3632.00
2018-06-15T10:14:31.269Z,3620.00
2018-06-15T10:15:31.266Z,3600.00
2018-06-15T10:16:31.288Z,3556.00
2018-06-15T10:17:31.319Z,3572.00
2018-06-15T10:18:31.330Z,3564.00
2018-06-15T10:19:31.353Z,3524.00
2018-06-15T10:20:31.375Z,3448.00
2018-06-15T10:21:32.363Z,3392.00
2018-06-15T10:22:31.395Z,3364.00
2018-06-15T10:23:31.418Z,3372.00
2018-06-15T10:24:31.437Z,3396.00
2018-06-15T10:25:31.455Z,3444.00
2018-06-15T10:26:31.471Z,3516.00
2018-06-15T10:27:31.493Z,3620.00
2018-06-15T10:28:31.513Z,3728.00
2018-06-15T10:29:31.533Z,3904.00
2018-06-15T10:30:31.550Z,4008.00
2018-06-15T10:31:31.564Z,5732.00
2018-06-15T10:32:31.597Z,4440.00
2018-06-15T10:33:31.634Z,4368.00
2018-06-15T10:34:31.624Z,5016.00
2018-06-15T10:35:31.647Z,6176.00
2018-06-15T10:36:31.713Z,6264.00
2018-06-15T10:37:31.682Z,6236.00
2018-06-15T10:38:31.698Z,6196.00
2018-06-15T10:39:31.771Z,6152.00
2018-06-15T10:40:32.229Z,6112.00
2018-06-15T10:41:32.484Z,6076.00
2018-06-15T10:42:31.778Z,5548.00
2018-06-15T10:43:31.791Z,5800.00
2018-06-15T10:44:31.829Z,5672.00
2018-06-15T10:45:31.859Z,5548.00
2018-06-15T10:46:31.848Z,5468.00
2018-06-15T10:47:31.889Z,5408.00
2018-06-15T10:48:31.966Z,5348.00
2018-06-15T10:49:31.916Z,4788.00
2018-06-15T10:50:31.922Z,4048.00
2018-06-15T10:51:31.944Z,4376.00
2018-06-15T10:52:32.008Z,4540.00
2018-06-15T10:53:31.976Z,4512.00
2018-06-15T10:54:32.001Z,3872.00
2018-06-15T10:55:32.019Z,4900.00
2018-06-15T10:56:32.149Z,5356.00
2018-06-15T10:57:32.055Z,5456.00
2018-06-15T10:58:32.072Z,5604.00
2018-06-15T10:59:32.096Z,5700.00
2018-06-15T11:00:32.118Z,5732.00
2018-06-15T11:01:32.131Z,5808.00
2018-06-15T11:02:32.155Z,5812.00
2018-06-15T11:03:32.174Z,5876.00
2018-06-15T11:04:32.197Z,5804.00
2018-06-15T11:05:32.210Z,5776.00
2018-06-15T11:06:32.226Z,5780.00
2018-06-15T11:07:32.386Z,5772.00
2018-06-15T11:08:32.894Z,5788.00
2018-06-15T11:09:32.305Z,5784.00
2018-06-15T11:10:32.308Z,5740.00
2018-06-15T11:11:32.336Z,5884.00
2018-06-15T11:12:32.349Z,5908.00
2018-06-15T11:13:32.371Z,5832.00
2018-06-15T11:14:32.385Z,4204.00
2018-06-15T11:15:32.406Z,3992.00
2018-06-15T11:16:32.426Z,3936.00
2018-06-15T11:17:32.952Z,3980.00
2018-06-15T11:18:32.488Z,4036.00
2018-06-15T11:19:32.510Z,4048.00
2018-06-15T11:20:32.503Z,4056.00
2018-06-15T11:21:32.572Z,4144.00
2018-06-15T11:22:32.540Z,4316.00
2018-06-15T11:23:32.561Z,4620.00
2018-06-15T11:25:33.070Z,6260.00
2018-06-15T11:26:32.617Z,6120.00
2018-06-15T11:27:32.647Z,6768.00
2018-06-15T11:28:32.662Z,6688.00
2018-06-15T11:29:32.680Z,5364.00
2018-06-15T11:30:32.764Z,4700.00
2018-06-15T11:31:32.721Z,4644.00
2018-06-15T11:32:32.742Z,4688.00
2018-06-15T11:33:32.858Z,4772.00
2018-06-15T11:34:32.780Z,5408.00
2018-06-15T11:35:32.799Z,6420.00
2018-06-15T11:36:32.835Z,5708.00
2018-06-15T11:37:32.843Z,5788.00
2018-06-15T11:38:32.868Z,6364.00
2018-06-15T11:39:32.877Z,6636.00
2018-06-15T11:40:32.902Z,6688.00
2018-06-15T11:41:32.919Z,6516.00
2018-06-15T11:42:32.942Z,6300.00
2018-06-15T11:43:33.062Z,6220.00
2018-06-15T11:44:32.982Z,6168.00
2018-06-15T11:45:33.002Z,6260.00
2018-06-15T11:46:33.034Z,6384.00
2018-06-15T11:47:33.043Z,6404.00
2018-06-15T11:48:33.064Z,6440.00
2018-06-15T11:49:33.082Z,6416.00
2018-06-15T11:50:33.627Z,6524.00
2018-06-15T11:51:33.128Z,6700.00
2018-06-15T11:52:33.142Z,6856.00
2018-06-15T11:53:33.173Z,7008.00
2018-06-15T11:54:33.291Z,7084.00
2018-06-15T11:55:33.212Z,7080.00
2018-06-15T11:56:33.229Z,7040.00
2018-06-15T11:57:33.321Z,6988.00
2018-06-15T11:58:33.269Z,6968.00
2018-06-15T11:59:33.358Z,7016.00
2018-06-15T12:00:33.306Z,7080.00
2018-06-15T12:01:33.328Z,7008.00
2018-06-15T12:02:33.348Z,6908.00
2018-06-15T12:03:33.421Z,6812.00
2018-06-15T12:04:33.391Z,6768.00
2018-06-15T12:05:33.412Z,6764.00
2018-06-15T12:06:33.509Z,6792.00
2018-06-15T12:07:33.474Z,6292.00
2018-06-15T12:08:33.483Z,7040.00
2018-06-15T12:09:33.541Z,7128.00
2018-06-15T12:10:33.527Z,7256.00
2018-06-15T12:11:33.562Z,7400.00
2018-06-15T12:12:33.556Z,7524.00
2018-06-15T12:13:33.589Z,7392.00
2018-06-15T12:14:33.596Z,7360.00
2018-06-15T12:15:33.621Z,7144.00
2018-06-15T12:16:33.639Z,7052.00
2018-06-15T12:17:33.660Z,4196.00
2018-06-15T12:18:33.683Z,4376.00
2018-06-15T12:19:33.705Z,4568.00
2018-06-15T12:20:33.750Z,6144.00
2018-06-15T12:21:33.747Z,7080.00
2018-06-15T12:22:33.787Z,4984.00
2018-06-15T12:23:33.970Z,7236.00
2018-06-15T12:24:34.369Z,5288.00
2018-06-15T12:25:33.865Z,7320.00
2018-06-15T12:26:33.854Z,7220.00
2018-06-15T12:27:33.871Z,7084.00
2018-06-15T12:28:34.050Z,6960.00
2018-06-15T12:29:33.914Z,7012.00
2018-06-15T12:30:34.007Z,6948.00
2018-06-15T12:31:34.797Z,6796.00
2018-06-15T12:32:35.124Z,4288.00
2018-06-15T12:33:35.286Z,4488.00
2018-06-15T12:34:34.021Z,4624.00